createdAt,value
2022-08-08T00:00:52.141Z,96.30
2022-08-08T00:02:57.238Z,96.30
2022-08-08T00:05:44.309Z,96.30
2022-08-08T00:08:34.493Z,96.40
2022-08-08T00:11:13.267Z,96.50
2022-08-08T00:14:15.128Z,96.60
2022-08-08T00:16:43.899Z,96.70
2022-08-08T00:19:18.912Z,96.80
2022-08-08T00:21:52.269Z,96.80
2022-08-08T00:24:29.983Z,96.90
2022-08-08T00:27:03.697Z,97.00
2022-08-08T00:29:44.949Z,97.10
2022-08-08T00:32:34.670Z,97.10
2022-08-08T00:35:34.329Z,97.20
2022-08-08T00:38:31.784Z,97.20
2022-08-08T00:42:07.817Z,97.40
2022-08-08T00:45:27.062Z,97.50
2022-08-08T00:48:29.320Z,97.50
2022-08-08T00:51:38.438Z,97.70
2022-08-08T00:54:53.740Z,97.80
2022-08-08T00:57:58.199Z,97.80
2022-08-08T01:00:31.182Z,98.00
2022-08-08T01:04:02.547Z,97.90
2022-08-08T01:07:05.927Z,98.20
2022-08-08T01:10:29.585Z,98.30
2022-08-08T01:13:43.967Z,98.40
2022-08-08T01:16:49.618Z,98.50
2022-08-08T01:20:17.832Z,98.60
2022-08-08T01:24:03.028Z,98.70
2022-08-08T01:27:24.233Z,98.80
2022-08-08T01:30:53.603Z,98.90
2022-08-08T01:34:01.283Z,99.20
2022-08-08T01:37:01.968Z,99.10
2022-08-08T01:39:47.851Z,99.30
2022-08-08T01:42:35.531Z,99.50
2022-08-08T01:45:23.455Z,99.50
2022-08-08T01:48:16.408Z,99.60
2022-08-08T01:52:00.133Z,99.70
2022-08-08T01:55:16.221Z,99.80
2022-08-08T01:57:25.919Z,99.90
2022-08-08T02:00:20.971Z,99.90
2022-08-08T02:03:55.537Z,99.90
2022-08-08T02:06:32.505Z,99.90
2022-08-08T02:10:01.920Z,99.90
2022-08-08T02:12:21.622Z,99.90
2022-08-08T02:14:59.632Z,99.90
2022-08-08T02:17:42.936Z,99.90
2022-08-08T02:21:01.822Z,99.90
2022-08-08T02:23:31.709Z,99.90
2022-08-08T02:26:10.056Z,99.90
2022-08-08T02:29:01.406Z,99.90
2022-08-08T02:32:05.077Z,99.90
2022-08-08T02:35:08.086Z,99.90
2022-08-08T02:38:01.131Z,99.90
2022-08-08T02:40:40.646Z,99.90
2022-08-08T02:44:42.334Z,99.90
2022-08-08T02:46:53.936Z,99.90
2022-08-08T02:49:51.489Z,99.90
2022-08-08T02:52:51.797Z,99.90
2022-08-08T02:56:03.233Z,99.90
2022-08-08T02:59:57.060Z,99.90
2022-08-08T03:03:05.084Z,99.90
2022-08-08T03:06:24.085Z,99.90
2022-08-08T03:09:44.149Z,99.90
2022-08-08T03:13:02.049Z,99.90
2022-08-08T03:16:09.968Z,99.90
2022-08-08T03:19:01.374Z,99.90
2022-08-08T03:21:54.966Z,99.90
2022-08-08T03:24:20.475Z,99.90
2022-08-08T03:26:53.294Z,99.90
2022-08-08T03:29:26.998Z,99.90
2022-08-08T03:32:31.513Z,99.90
2022-08-08T03:35:00.663Z,99.90
2022-08-08T03:38:53.156Z,99.90
2022-08-08T03:40:29.010Z,99.90
2022-08-08T03:43:16.420Z,99.90
2022-08-08T03:46:05.745Z,99.90
2022-08-08T03:49:54.975Z,99.90
2022-08-08T03:51:46.978Z,99.90
2022-08-08T03:54:52.196Z,99.90
2022-08-08T03:58:31.446Z,99.90
2022-08-08T04:00:07.879Z,99.90
2022-08-08T04:02:54.722Z,99.90
2022-08-08T04:05:28.723Z,99.90
2022-08-08T04:08:02.855Z,99.90
2022-08-08T04:10:33.773Z,99.90
2022-08-08T04:13:17.552Z,99.90
2022-08-08T04:16:03.219Z,99.90
2022-08-08T04:18:44.574Z,99.90
2022-08-08T04:21:22.871Z,99.90
2022-08-08T04:24:05.194Z,99.90
2022-08-08T04:26:57.310Z,99.90
2022-08-08T04:29:27.682Z,99.90
2022-08-08T04:32:07.508Z,99.90
2022-08-08T04:34:49.530Z,99.90
2022-08-08T04:37:32.479Z,99.90
2022-08-08T04:40:08.164Z,99.90
2022-08-08T04:42:57.231Z,99.90
2022-08-08T04:45:34.948Z,99.90
2022-08-08T04:48:05.223Z,99.90
2022-08-08T04:50:40.313Z,99.90
2022-08-08T04:54:36.130Z,99.90
2022-08-08T04:56:07.964Z,99.90
2022-08-08T04:58:38.196Z,99.90
2022-08-08T05:01:11.264Z,99.90
2022-08-08T05:04:10.456Z,99.90
2022-08-08T05:06:39.056Z,99.90
2022-08-08T05:09:09.083Z,99.90
2022-08-08T05:11:41.594Z,99.90
2022-08-08T05:14:14.161Z,99.90
2022-08-08T05:16:54.129Z,99.90
2022-08-08T05:20:10.794Z,99.90
2022-08-08T05:22:21.535Z,99.90
2022-08-08T05:24:52.364Z,99.90
2022-08-08T05:27:23.301Z,99.90
2022-08-08T05:29:54.934Z,99.90
2022-08-08T05:32:36.717Z,99.90
2022-08-08T05:35:13.640Z,99.90
2022-08-08T05:37:52.719Z,99.90
2022-08-08T05:40:30.261Z,99.90
2022-08-08T05:43:17.266Z,99.90
2022-08-08T05:46:03.746Z,99.90
2022-08-08T05:48:41.787Z,99.90
2022-08-08T05:51:15.757Z,99.90
2022-08-08T05:54:25.284Z,99.90
2022-08-08T05:56:42.595Z,99.90
2022-08-08T06:00:01.221Z,99.90
2022-08-08T06:02:34.717Z,99.90
2022-08-08T06:05:24.500Z,99.90
2022-08-08T06:08:02.679Z,99.90
2022-08-08T06:10:41.150Z,99.90
2022-08-08T06:13:12.393Z,99.90
2022-08-08T06:15:50.890Z,99.90
2022-08-08T06:18:29.867Z,99.90
2022-08-08T06:21:03.770Z,99.90
2022-08-08T06:24:02.421Z,99.90
2022-08-08T06:26:45.214Z,99.90
2022-08-08T06:30:00.196Z,99.90
2022-08-08T06:32:17.422Z,99.90
2022-08-08T06:35:11.874Z,99.90
2022-08-08T06:37:50.779Z,99.90
2022-08-08T06:40:26.757Z,99.90
2022-08-08T06:42:57.278Z,99.90
2022-08-08T06:45:33.774Z,99.90
2022-08-08T06:48:04.174Z,99.90
2022-08-08T06:50:38.513Z,99.90
2022-08-08T06:53:17.458Z,99.90
2022-08-08T06:56:01.927Z,99.90
2022-08-08T06:58:33.101Z,99.90
2022-08-08T07:01:24.270Z,99.90
2022-08-08T07:04:36.996Z,99.90
2022-08-08T07:06:55.711Z,99.90
2022-08-08T07:09:45.334Z,99.90
2022-08-08T07:12:30.470Z,99.90
2022-08-08T07:15:05.577Z,99.90
2022-08-08T07:18:00.617Z,99.90
2022-08-08T07:20:30.703Z,99.90
2022-08-08T07:23:04.986Z,99.90
2022-08-08T07:25:44.139Z,99.90
2022-08-08T07:28:24.386Z,99.90
2022-08-08T07:31:04.634Z,99.90
2022-08-08T07:33:37.697Z,99.90
2022-08-08T07:36:09.180Z,99.90
2022-08-08T07:38:39.108Z,99.90
2022-08-08T07:41:23.681Z,99.90
2022-08-08T07:43:58.860Z,99.90
2022-08-08T07:46:30.511Z,99.90
2022-08-08T07:49:06.432Z,99.90
2022-08-08T07:51:53.306Z,99.90
2022-08-08T07:54:33.427Z,99.90
2022-08-08T07:57:21.938Z,99.90
2022-08-08T08:00:03.056Z,99.90
2022-08-08T08:02:41.750Z,99.90
2022-08-08T08:05:18.436Z,99.90
2022-08-08T08:07:53.055Z,99.90
2022-08-08T08:10:30.682Z,99.90
2022-08-08T08:13:25.091Z,99.90
2022-08-08T08:16:02.325Z,99.90
2022-08-08T08:18:51.865Z,99.90
2022-08-08T08:21:44.663Z,99.90
2022-08-08T08:24:32.323Z,99.90
2022-08-08T08:27:03.597Z,99.90
2022-08-08T08:29:36.072Z,99.90
2022-08-08T08:32:06.431Z,99.90
2022-08-08T08:34:42.516Z,99.90
2022-08-08T08:37:15.502Z,99.90
2022-08-08T08:40:00.174Z,99.90
2022-08-08T08:42:35.815Z,99.90
2022-08-08T08:45:22.718Z,99.90
2022-08-08T08:48:02.378Z,99.90
2022-08-08T08:50:40.810Z,99.90
2022-08-08T08:53:55.068Z,99.90
2022-08-08T08:56:12.137Z,99.90
2022-08-08T08:58:46.812Z,99.90
2022-08-08T09:01:36.353Z,99.90
2022-08-08T09:04:30.115Z,99.90
2022-08-08T09:07:01.117Z,99.90
2022-08-08T09:09:38.921Z,99.90
2022-08-08T09:12:20.394Z,99.90
2022-08-08T09:14:51.878Z,99.90
2022-08-08T09:17:31.680Z,99.90
2022-08-08T09:22:02.278Z,99.90
2022-08-08T09:23:03.961Z,99.90
2022-08-08T09:25:54.528Z,99.90
2022-08-08T09:28:37.338Z,99.90
2022-08-08T09:31:13.273Z,99.90
2022-08-08T09:34:15.399Z,99.90
2022-08-08T09:36:40.488Z,99.90
2022-08-08T09:39:22.539Z,99.90
2022-08-08T09:42:20.931Z,99.90
2022-08-08T09:45:04.125Z,99.90
2022-08-08T09:48:04.848Z,99.90
2022-08-08T09:50:32.476Z,99.90
2022-08-08T09:53:23.665Z,99.90
2022-08-08T09:56:04.706Z,99.90
2022-08-08T09:58:41.317Z,99.90
2022-08-08T10:01:58.194Z,99.90
2022-08-08T10:04:38.362Z,99.90
2022-08-08T10:07:07.528Z,99.90
2022-08-08T10:09:58.811Z,99.90
2022-08-08T10:12:38.461Z,99.90
2022-08-08T10:15:22.151Z,99.90
2022-08-08T10:18:05.434Z,99.90
2022-08-08T10:20:58.288Z,99.90
2022-08-08T10:23:44.157Z,99.90
2022-08-08T10:26:30.108Z,99.90
2022-08-08T10:29:11.410Z,99.90
2022-08-08T10:31:59.693Z,99.90
2022-08-08T10:34:29.846Z,99.90
2022-08-08T10:37:00.365Z,99.90
2022-08-08T10:39:31.550Z,99.90
2022-08-08T10:42:16.650Z,99.90
2022-08-08T10:44:46.035Z,99.90
2022-08-08T10:47:21.236Z,99.90
2022-08-08T10:50:01.491Z,99.90
2022-08-08T10:52:34.016Z,99.90
2022-08-08T10:55:06.979Z,99.90
2022-08-08T10:57:50.338Z,99.90
2022-08-08T11:00:26.234Z,99.90
2022-08-08T11:02:55.462Z,99.90
2022-08-08T11:05:24.349Z,99.90
2022-08-08T11:08:36.926Z,99.90
2022-08-08T11:10:44.002Z,99.90
2022-08-08T11:13:30.424Z,99.90
2022-08-08T11:16:07.709Z,99.90
2022-08-08T11:18:37.639Z,99.90
2022-08-08T11:21:10.651Z,99.90
2022-08-08T11:24:02.102Z,99.90
2022-08-08T11:26:38.263Z,99.90
2022-08-08T11:29:41.605Z,99.90
2022-08-08T11:32:15.340Z,99.90
2022-08-08T11:35:09.652Z,99.90
2022-08-08T11:38:35.724Z,99.90
2022-08-08T11:40:26.644Z,99.90
2022-08-08T11:42:57.506Z,99.90
2022-08-08T11:45:26.138Z,99.90
2022-08-08T11:48:04.380Z,99.90
2022-08-08T11:50:34.358Z,99.90
2022-08-08T11:53:05.906Z,99.90
2022-08-08T11:55:36.717Z,99.90
2022-08-08T11:58:14.162Z,99.90
2022-08-08T12:00:47.869Z,99.90
2022-08-08T12:03:22.206Z,99.90
2022-08-08T12:05:52.609Z,99.90
2022-08-08T12:08:33.929Z,99.90
2022-08-08T12:11:05.334Z,99.90
2022-08-08T12:14:02.943Z,99.90
2022-08-08T12:16:30.303Z,99.90
2022-08-08T12:19:05.839Z,99.90
2022-08-08T12:21:59.568Z,99.90
2022-08-08T12:24:28.057Z,99.90
2022-08-08T12:26:58.598Z,99.90
2022-08-08T12:29:40.555Z,99.90
2022-08-08T12:32:20.269Z,99.90
2022-08-08T12:35:04.498Z,99.90
2022-08-08T12:37:48.151Z,99.90
2022-08-08T12:40:54.179Z,99.90
2022-08-08T12:43:31.940Z,99.90
2022-08-08T12:46:04.096Z,99.90
2022-08-08T12:48:36.988Z,99.90
2022-08-08T12:51:11.304Z,99.90
2022-08-08T12:53:57.582Z,99.90
2022-08-08T12:56:35.310Z,99.90
2022-08-08T12:59:14.561Z,99.90
2022-08-08T13:01:51.807Z,99.90
2022-08-08T13:04:24.532Z,99.90
2022-08-08T13:07:00.965Z,99.90
2022-08-08T13:10:02.021Z,99.90
2022-08-08T13:12:29.543Z,99.90
2022-08-08T13:15:01.044Z,99.90
2022-08-08T13:18:07.790Z,99.90
2022-08-08T13:20:21.822Z,99.90
2022-08-08T13:22:59.303Z,99.90
2022-08-08T13:25:40.205Z,99.90
2022-08-08T13:28:08.449Z,99.90
2022-08-08T13:30:36.617Z,99.90
2022-08-08T13:33:08.851Z,99.90
2022-08-08T13:35:43.088Z,99.90
2022-08-08T13:38:13.966Z,99.90
2022-08-08T13:40:45.029Z,99.90
2022-08-08T13:43:16.143Z,99.90
2022-08-08T13:45:47.427Z,99.90
2022-08-08T13:48:25.073Z,99.90
2022-08-08T13:50:58.036Z,99.90
2022-08-08T13:54:00.458Z,99.90
2022-08-08T13:56:31.625Z,99.50
2022-08-08T13:58:59.802Z,99.60
2022-08-08T14:01:32.846Z,99.90
2022-08-08T14:04:25.812Z,98.70
2022-08-08T14:07:01.643Z,98.40
2022-08-08T14:10:04.404Z,98.60
2022-08-08T14:12:30.745Z,99.00
2022-08-08T14:15:02.964Z,99.20
2022-08-08T14:17:57.394Z,99.50
2022-08-08T14:20:58.162Z,99.50
2022-08-08T14:24:06.702Z,98.90
2022-08-08T14:26:11.030Z,98.90
2022-08-08T14:28:40.331Z,99.00
2022-08-08T14:31:10.316Z,99.10
2022-08-08T14:33:39.139Z,99.30
2022-08-08T14:36:13.477Z,99.10
2022-08-08T14:38:52.358Z,99.10
2022-08-08T14:41:53.561Z,98.80
2022-08-08T14:44:21.104Z,98.30
2022-08-08T14:47:00.323Z,97.50
2022-08-08T14:49:37.968Z,96.90
2022-08-08T14:52:25.598Z,96.90
2022-08-08T14:54:53.769Z,97.10
2022-08-08T14:58:02.846Z,96.90
2022-08-08T15:00:11.711Z,96.30
2022-08-08T15:02:58.949Z,96.40
2022-08-08T15:05:42.931Z,96.00
2022-08-08T15:08:35.367Z,96.30
2022-08-08T15:11:10.460Z,96.30
2022-08-08T15:14:00.822Z,96.00
2022-08-08T15:16:34.339Z,96.10
2022-08-08T15:19:04.358Z,95.40
2022-08-08T15:21:32.943Z,95.40
2022-08-08T15:24:02.738Z,95.60
2022-08-08T15:26:31.595Z,95.00
2022-08-08T15:29:00.909Z,95.30
2022-08-08T15:32:03.521Z,95.50
2022-08-08T15:34:29.603Z,95.10
2022-08-08T15:37:02.240Z,95.10
2022-08-08T15:39:38.035Z,95.40
2022-08-08T15:42:13.085Z,95.50
2022-08-08T15:44:46.628Z,95.30
2022-08-08T15:47:19.026Z,94.90
2022-08-08T15:49:48.829Z,94.80
2022-08-08T15:52:20.766Z,94.50
2022-08-08T15:54:52.638Z,94.90
2022-08-08T15:57:23.199Z,94.40
2022-08-08T16:00:25.611Z,94.40
2022-08-08T16:02:44.189Z,94.40
2022-08-08T16:05:18.858Z,94.40
2022-08-08T16:07:53.174Z,93.90
2022-08-08T16:13:12.125Z,93.40
2022-08-08T16:13:34.499Z,93.40
2022-08-08T16:16:09.312Z,92.80
2022-08-08T16:18:57.453Z,92.60
2022-08-08T16:21:30.602Z,92.70
2022-08-08T16:24:00.631Z,92.70
2022-08-08T16:26:34.315Z,92.80
2022-08-08T16:29:09.013Z,92.80
2022-08-08T16:31:42.032Z,92.50
2022-08-08T16:34:18.571Z,92.60
2022-08-08T16:36:50.292Z,92.70
2022-08-08T16:40:00.723Z,92.70
2022-08-08T16:42:18.182Z,92.70
2022-08-08T16:44:54.391Z,92.90
2022-08-08T16:47:40.728Z,93.10
2022-08-08T16:50:14.018Z,93.00
2022-08-08T16:55:04.084Z,93.20
2022-08-08T16:55:52.231Z,93.30
2022-08-08T16:58:25.668Z,93.00
2022-08-08T17:00:58.863Z,92.80
2022-08-08T17:03:59.883Z,93.00
2022-08-08T17:06:36.127Z,93.20
2022-08-08T17:09:04.139Z,93.30
2022-08-08T17:11:39.332Z,93.40
2022-08-08T17:14:27.010Z,93.40
2022-08-08T17:17:01.459Z,93.10
2022-08-08T17:19:30.298Z,93.00
2022-08-08T17:22:01.790Z,93.10
2022-08-08T17:24:31.416Z,93.20
2022-08-08T17:27:00.394Z,93.30
2022-08-08T17:29:33.829Z,93.30
2022-08-08T17:32:04.297Z,93.30
2022-08-08T17:34:48.156Z,93.30
2022-08-08T17:37:23.026Z,93.70
2022-08-08T17:40:10.910Z,93.80
2022-08-08T17:42:47.179Z,93.70
2022-08-08T17:45:23.442Z,93.70
2022-08-08T17:47:54.183Z,93.80
2022-08-08T17:50:23.635Z,93.90
2022-08-08T17:52:52.877Z,94.00
2022-08-08T17:56:03.743Z,94.00
2022-08-08T17:58:11.764Z,94.10
2022-08-08T18:00:42.039Z,94.20
2022-08-08T18:03:16.049Z,94.40
2022-08-08T18:05:50.068Z,94.50
2022-08-08T18:08:37.477Z,94.60
2022-08-08T18:11:14.567Z,94.70
2022-08-08T18:13:45.563Z,94.80
2022-08-08T18:16:20.597Z,94.90
2022-08-08T18:18:52.706Z,94.90
2022-08-08T18:22:00.402Z,95.00
2022-08-08T18:24:19.680Z,95.00
2022-08-08T18:26:55.001Z,95.10
2022-08-08T18:29:29.396Z,95.20
2022-08-08T18:32:00.215Z,95.30
2022-08-08T18:34:33.401Z,95.40
2022-08-08T18:37:06.530Z,95.40
2022-08-08T18:39:38.224Z,95.60
2022-08-08T18:42:14.283Z,95.70
2022-08-08T18:44:54.992Z,95.80
2022-08-08T18:47:26.927Z,95.80
2022-08-08T18:49:58.744Z,95.80
2022-08-08T18:52:29.766Z,95.80
2022-08-08T18:55:10.853Z,95.80
2022-08-08T18:57:44.562Z,95.90
2022-08-08T19:00:19.655Z,95.90
2022-08-08T19:02:55.605Z,95.90
2022-08-08T19:05:30.633Z,95.90
2022-08-08T19:08:03.051Z,95.90
2022-08-08T19:10:32.558Z,95.90
2022-08-08T19:13:03.378Z,96.00
2022-08-08T19:15:34.334Z,96.10
2022-08-08T19:18:32.950Z,96.10
2022-08-08T19:20:55.453Z,96.10
2022-08-08T19:23:23.833Z,96.10
2022-08-08T19:26:19.761Z,96.20
2022-08-08T19:28:43.334Z,96.10
2022-08-08T19:31:13.186Z,96.10
2022-08-08T19:34:05.148Z,96.10
2022-08-08T19:36:35.735Z,96.20
2022-08-08T19:39:06.894Z,96.20
2022-08-08T19:41:40.176Z,96.20
2022-08-08T19:44:12.493Z,96.20
2022-08-08T19:46:41.587Z,96.20
2022-08-08T19:49:11.167Z,96.20
2022-08-08T19:51:43.235Z,96.20
2022-08-08T19:54:12.518Z,96.30
2022-08-08T19:56:48.610Z,96.30
2022-08-08T19:59:18.784Z,96.30
2022-08-08T20:02:03.061Z,96.30
2022-08-08T20:04:35.358Z,96.30
2022-08-08T20:08:28.580Z,96.40
2022-08-08T20:09:56.023Z,96.50
2022-08-08T20:12:34.436Z,96.60
2022-08-08T20:15:14.199Z,96.60
2022-08-08T20:17:46.509Z,96.60
2022-08-08T20:20:19.577Z,96.60
2022-08-08T20:22:53.792Z,96.60
2022-08-08T20:25:22.930Z,96.60
2022-08-08T20:27:54.789Z,96.60
2022-08-08T20:30:52.961Z,96.60
2022-08-08T20:35:58.128Z,96.70
2022-08-08T20:38:32.122Z,96.70
2022-08-08T20:41:17.834Z,96.80
2022-08-08T20:43:50.026Z,96.80
2022-08-08T20:46:20.359Z,96.90
2022-08-08T20:49:54.257Z,97.00
2022-08-08T20:52:48.315Z,97.10
2022-08-08T20:55:42.937Z,97.10
2022-08-08T20:58:34.461Z,97.10
2022-08-08T21:01:28.357Z,97.30
2022-08-08T21:05:00.319Z,97.30
2022-08-08T21:08:00.801Z,97.50
2022-08-08T21:10:46.812Z,97.60
2022-08-08T21:13:41.035Z,97.90
2022-08-08T21:16:20.342Z,98.20
2022-08-08T21:19:03.220Z,97.80
2022-08-08T21:21:41.438Z,98.00
2022-08-08T21:24:31.348Z,98.10
2022-08-08T21:27:03.944Z,98.30
2022-08-08T21:30:04.591Z,98.40
2022-08-08T21:32:37.345Z,98.40
2022-08-08T21:36:14.242Z,98.50
2022-08-08T21:38:16.965Z,98.40
2022-08-08T21:40:56.397Z,98.50
2022-08-08T21:43:34.224Z,98.50
2022-08-08T21:48:21.657Z,98.80
2022-08-08T21:49:03.799Z,98.70
2022-08-08T21:54:18.710Z,98.80
2022-08-08T21:55:01.759Z,99.00
2022-08-08T21:57:23.523Z,99.10
2022-08-08T22:00:02.292Z,99.20
2022-08-08T22:02:41.659Z,99.20
2022-08-08T22:05:19.401Z,99.40
2022-08-08T22:08:00.184Z,99.50
2022-08-08T22:10:32.951Z,99.50
2022-08-08T22:13:17.482Z,99.50
2022-08-08T22:15:59.546Z,99.60
2022-08-08T22:18:30.948Z,99.70
2022-08-08T22:21:10.743Z,99.80
2022-08-08T22:23:50.362Z,99.80
2022-08-08T22:26:29.621Z,99.90
2022-08-08T22:29:13.893Z,99.90
2022-08-08T22:31:58.701Z,99.90
2022-08-08T22:34:39.044Z,99.90
2022-08-08T22:37:15.111Z,99.90
2022-08-08T22:40:01.495Z,99.90
2022-08-08T22:42:31.962Z,99.90
2022-08-08T22:45:05.331Z,99.90
2022-08-08T22:47:47.000Z,99.90
2022-08-08T22:50:27.152Z,99.90
2022-08-08T22:54:28.373Z,99.90
2022-08-08T22:55:57.890Z,99.90
2022-08-08T22:58:28.877Z,99.90
2022-08-08T23:00:59.889Z,99.90
2022-08-08T23:03:34.400Z,99.90
2022-08-08T23:06:17.642Z,99.90
2022-08-08T23:08:55.806Z,99.90
2022-08-08T23:12:18.170Z,99.90
2022-08-08T23:14:17.399Z,99.90
2022-08-08T23:16:58.000Z,99.90
2022-08-08T23:19:32.501Z,99.90
2022-08-08T23:22:04.692Z,99.90
2022-08-08T23:24:36.293Z,99.90
2022-08-08T23:27:06.083Z,99.90
2022-08-08T23:29:34.865Z,99.90
2022-08-08T23:32:04.935Z,99.90
2022-08-08T23:34:34.350Z,99.90
2022-08-08T23:37:03.645Z,99.90
2022-08-08T23:39:41.611Z,99.90
2022-08-08T23:42:17.547Z,99.90
2022-08-08T23:44:49.825Z,99.90
2022-08-08T23:49:07.762Z,99.90
2022-08-08T23:50:30.691Z,99.90
2022-08-08T23:53:05.082Z,99.90
2022-08-08T23:55:41.994Z,99.90
2022-08-08T23:58:32.187Z,99.90
